Main page
METAR-TAF:

METAR-TAF

Airports :

St. Louis Lambert International Airport

St. Louis, Missouri, United States

latitude: 38-45-09N, longitude: 090-22-25W, elevation: 604 ft

Current weather observation

The report was made 30 minutes ago, at 22:51 UTC
Wind 6 mph from the East/Southeast
Temperature 46°F
Humidity 29%
Pressure 30.06 in. Hg
Visibility: 10 miles
Clear sky

METAR: KSTL 242251Z 12005KT 10SM CLR 08/M09 A3006 RMK AO2 SLP183 T00831089

Time: 17:21 (23:21 UTC)

Forecast

The report was made 2 hours and 16 minutes ago, at 21:05 UTC
Forecast valid from 24 at 21 UTC to 25 at 24 UTC
Wind 6 mph from the West
Visibility: 6 miles
Clear sky
From 25 at 0000 UTC
Wind 7 mph from the South/Southeast
Visibility: 6 miles
Clear sky
From 25 at 0900 UTC
Wind 8 mph from the South
Visibility: 6 miles
Clear sky
From 25 at 1400 UTC
Wind 10 mph from the Southwest
Visibility: 6 miles
Clear sky

TAF: KSTL 242105Z 2421/2524 27005KT P6SM SKC FM250000 16006KT P6SM SKC FM250900 19007KT P6SM SKC WS020/25040KT FM251400 23009KT P6SM SKC

Weather observations and forecasts of more than 4000 airports (METAR and TAF reports).

The available stations are represented by yellow and red dots on the map.

Hover mouse over dot to see the name of the station.

Then click to see weather observations and forecasts.

To change the map : click on the green buttons with a black cross to zoom in, on the green button with a dash to zoom out, or on the green arrows for adjacent maps.


METAR-TAF: